Round Spring, Missouri
Current Conditions -  °F | °C
As of 7:53 AM on Sunday 21 Dec 2014 (Local Time) from KUNO Reporting Station
Overcast Overcast  
Wind Chill: 32°   Ceiling: 2600
Heat Index: 38°   Visibility: 8mi
Dew Point: 34°   Wind: 8mph
Humidity: 86%   Direction: 140°SE
Pressure: 30.16"   Gusts: NA
Location:  37.1833°N, 91.4819°W
Report Text: KUNO 211353Z AUTO 14007KT 8SM OVC026 03/01 A3016 RMK AO2 SLP218 T00330011 $
Loading
Personal Weather Stations






























Interactive Weather Map New forecast layout! Learn more

10-Day Weather Forecast

Advertisements
Track Severe Weather on mobile